createdAt,value
2019-02-10T00:01:41.712Z,99587.00
2019-02-10T00:04:14.565Z,99574.00
2019-02-10T00:06:47.401Z,99570.00
2019-02-10T00:09:20.242Z,99591.00
2019-02-10T00:11:53.083Z,99595.00
2019-02-10T00:14:25.953Z,99591.00
2019-02-10T00:16:58.749Z,99592.00
2019-02-10T00:19:31.627Z,99596.00
2019-02-10T00:22:04.665Z,99585.00
2019-02-10T00:24:37.497Z,99573.00
2019-02-10T00:27:10.314Z,99573.00
2019-02-10T00:29:43.147Z,99554.00
2019-02-10T00:32:15.998Z,99556.00
2019-02-10T00:34:48.823Z,99552.00
2019-02-10T00:37:21.637Z,99549.00
2019-02-10T00:39:54.516Z,99520.00
2019-02-10T00:42:27.346Z,99517.00
2019-02-10T00:45:00.180Z,99510.00
2019-02-10T00:47:33.015Z,99513.00
2019-02-10T00:50:05.922Z,99515.00
2019-02-10T00:52:38.727Z,99513.00
2019-02-10T00:55:11.549Z,99515.00
2019-02-10T00:57:44.373Z,99512.00
2019-02-10T01:00:17.541Z,99492.00
2019-02-10T01:02:50.344Z,99490.00
2019-02-10T01:05:23.200Z,99482.00
2019-02-10T01:07:56.032Z,99479.00
2019-02-10T01:10:29.181Z,99482.00
2019-02-10T01:13:01.990Z,99475.00
2019-02-10T01:15:34.831Z,99462.00
2019-02-10T01:18:07.681Z,99466.00
2019-02-10T01:20:40.626Z,99468.00
2019-02-10T01:23:13.455Z,99476.00
2019-02-10T01:25:46.311Z,99467.00
2019-02-10T01:28:19.126Z,99464.00
2019-02-10T01:30:51.959Z,99465.00
2019-02-10T01:33:24.765Z,99460.00
2019-02-10T01:35:57.639Z,99455.00
2019-02-10T01:38:30.470Z,99445.00
2019-02-10T01:41:05.321Z,99440.00
2019-02-10T01:43:38.121Z,99431.00
2019-02-10T01:46:10.997Z,99434.00
2019-02-10T01:48:43.785Z,99420.00
2019-02-10T01:51:16.615Z,99416.00
2019-02-10T01:53:49.434Z,99404.00
2019-02-10T01:56:22.256Z,99405.00
2019-02-10T01:58:55.065Z,99395.00
2019-02-10T02:01:27.893Z,99388.00
2019-02-10T02:04:00.692Z,99386.00
2019-02-10T02:06:33.513Z,99366.00
2019-02-10T02:09:08.961Z,99349.00
2019-02-10T02:11:41.791Z,99347.00
2019-02-10T02:14:14.600Z,99342.00
2019-02-10T02:16:47.484Z,99340.00
2019-02-10T02:19:20.285Z,99338.00
2019-02-10T02:21:53.333Z,99320.00
2019-02-10T02:24:26.193Z,99324.00
2019-02-10T02:26:59.469Z,99300.00
2019-02-10T02:29:32.330Z,99295.00
2019-02-10T02:32:05.165Z,99278.00
2019-02-10T02:34:38.028Z,99284.00
2019-02-10T02:37:10.813Z,99271.00
2019-02-10T02:39:43.660Z,99273.00
2019-02-10T02:42:16.492Z,99265.00
2019-02-10T02:44:49.371Z,99263.00
2019-02-10T02:47:22.170Z,99250.00
2019-02-10T02:49:55.013Z,99240.00
2019-02-10T02:52:27.849Z,99241.00
2019-02-10T02:55:00.723Z,99233.00
2019-02-10T02:57:33.509Z,99228.00
2019-02-10T03:00:07.563Z,99216.00
2019-02-10T03:02:40.392Z,99206.00
2019-02-10T03:05:13.212Z,99194.00
2019-02-10T03:07:46.031Z,99170.00
2019-02-10T03:10:18.845Z,99162.00
2019-02-10T03:12:51.712Z,99192.00
2019-02-10T03:15:24.541Z,99170.00
2019-02-10T03:17:57.373Z,99177.00
2019-02-10T03:20:30.210Z,99172.00
2019-02-10T03:23:03.034Z,99166.00
2019-02-10T03:25:35.863Z,99166.00
2019-02-10T03:28:08.665Z,99168.00
2019-02-10T03:30:41.498Z,99166.00
2019-02-10T03:33:14.457Z,99170.00
2019-02-10T03:35:47.353Z,99144.00
2019-02-10T03:38:20.240Z,99147.00
2019-02-10T03:40:52.978Z,99128.00
2019-02-10T03:43:25.819Z,99116.00
2019-02-10T03:45:58.649Z,99114.00
2019-02-10T03:48:31.442Z,99108.00
2019-02-10T03:51:04.232Z,99110.00
2019-02-10T03:53:37.144Z,99114.00
2019-02-10T03:56:09.959Z,99102.00
2019-02-10T03:58:42.882Z,99099.00
2019-02-10T04:01:15.725Z,99096.00
2019-02-10T04:03:48.548Z,99090.00
2019-02-10T04:06:21.399Z,99097.00
2019-02-10T04:08:54.320Z,99087.00
2019-02-10T04:11:27.114Z,99076.00
2019-02-10T04:13:59.897Z,99081.00
2019-02-10T04:16:33.823Z,99071.00
2019-02-10T04:19:06.618Z,99067.00
2019-02-10T04:21:39.499Z,99056.00
2019-02-10T04:24:12.322Z,99054.00
2019-02-10T04:26:45.154Z,99044.00
2019-02-10T04:29:17.994Z,99035.00
2019-02-10T04:31:50.801Z,99033.00
2019-02-10T04:34:23.646Z,99026.00
2019-02-10T04:36:56.499Z,99019.00
2019-02-10T04:39:29.337Z,99022.00
2019-02-10T04:42:02.189Z,99025.00
2019-02-10T04:44:35.020Z,99021.00
2019-02-10T04:47:07.850Z,99017.00
2019-02-10T04:49:40.665Z,99001.00
2019-02-10T04:52:13.516Z,99000.00
2019-02-10T04:54:46.336Z,98982.00
2019-02-10T04:57:19.227Z,98983.00
2019-02-10T04:59:52.046Z,98974.00
2019-02-10T05:02:24.890Z,98964.00
2019-02-10T05:04:57.707Z,98965.00
2019-02-10T05:07:30.550Z,98950.00
2019-02-10T05:10:03.911Z,98936.00
2019-02-10T05:12:36.742Z,98941.00
2019-02-10T05:15:09.566Z,98934.00
2019-02-10T05:17:42.395Z,98920.00
2019-02-10T05:20:15.199Z,98915.00
2019-02-10T05:22:48.042Z,98912.00
2019-02-10T05:25:20.815Z,98898.00
2019-02-10T05:27:53.644Z,98895.00
2019-02-10T05:30:26.503Z,98887.00
2019-02-10T05:32:59.362Z,98882.00
2019-02-10T05:35:32.211Z,98873.00
2019-02-10T05:38:05.155Z,98861.00
2019-02-10T05:40:38.010Z,98851.00
2019-02-10T05:43:11.023Z,98842.00
2019-02-10T05:45:44.037Z,98844.00
2019-02-10T05:48:17.026Z,98835.00
2019-02-10T05:50:50.080Z,98824.00
2019-02-10T05:53:23.057Z,98827.00
2019-02-10T05:55:55.922Z,98811.00
2019-02-10T05:58:29.878Z,98803.00
2019-02-10T06:02:00.787Z,98793.00
2019-02-10T06:04:39.843Z,98800.00
2019-02-10T06:07:16.516Z,98783.00
2019-02-10T06:09:49.502Z,98774.00
2019-02-10T06:12:22.495Z,98762.00
2019-02-10T06:14:55.499Z,98764.00
2019-02-10T06:17:28.368Z,98761.00
2019-02-10T06:20:01.514Z,98753.00
2019-02-10T06:22:34.402Z,98748.00
2019-02-10T06:25:07.835Z,98736.00
2019-02-10T06:27:40.833Z,98731.00
2019-02-10T06:30:13.836Z,98728.00
2019-02-10T06:32:46.751Z,98711.00
2019-02-10T06:35:19.622Z,98710.00
2019-02-10T06:37:52.658Z,98699.00
2019-02-10T06:40:25.670Z,98697.00
2019-02-10T06:42:58.671Z,98692.00
2019-02-10T06:45:31.469Z,98681.00
2019-02-10T06:48:04.280Z,98670.00
2019-02-10T06:50:37.092Z,98658.00
2019-02-10T06:53:09.979Z,98653.00
2019-02-10T06:55:42.798Z,98650.00
2019-02-10T06:58:15.630Z,98626.00
2019-02-10T07:00:58.744Z,98616.00
2019-02-10T07:03:59.045Z,98607.00
2019-02-10T07:06:32.326Z,98609.00
2019-02-10T07:09:06.143Z,98607.00
2019-02-10T07:11:38.980Z,98597.00
2019-02-10T07:14:37.480Z,98593.00
2019-02-10T07:18:02.379Z,98590.00
2019-02-10T07:20:40.974Z,98596.00
2019-02-10T07:24:25.083Z,98598.00
2019-02-10T07:27:08.351Z,98578.00
2019-02-10T07:30:45.826Z,98588.00
2019-02-10T07:34:30.039Z,98589.00
2019-02-10T07:37:39.338Z,98582.00
2019-02-10T07:41:09.661Z,98571.00
2019-02-10T07:44:43.052Z,98565.00
2019-02-10T07:48:25.563Z,98562.00
2019-02-10T07:51:54.586Z,98563.00
2019-02-10T07:55:43.922Z,98561.00
2019-02-10T07:58:56.048Z,98554.00
2019-02-10T08:02:13.953Z,98546.00
2019-02-10T08:05:25.975Z,98540.00
2019-02-10T08:09:09.338Z,98525.00
2019-02-10T08:12:55.674Z,98517.00
2019-02-10T08:16:57.130Z,98513.00
2019-02-10T08:20:16.612Z,98510.00
2019-02-10T08:23:42.306Z,98488.00
2019-02-10T08:27:09.327Z,98477.00
2019-02-10T08:30:28.753Z,98471.00
2019-02-10T08:33:51.762Z,98464.00
2019-02-10T08:37:28.017Z,98445.00
2019-02-10T08:41:13.451Z,98444.00
2019-02-10T08:44:48.059Z,98431.00
2019-02-10T08:47:59.184Z,98421.00
2019-02-10T08:51:34.555Z,98419.00
2019-02-10T08:54:08.453Z,98403.00
2019-02-10T08:56:41.410Z,98400.00
2019-02-10T08:59:14.220Z,98401.00
2019-02-10T09:01:47.164Z,98389.00
2019-02-10T09:04:20.038Z,98375.00
2019-02-10T09:06:53.007Z,98371.00
2019-02-10T09:09:25.835Z,98363.00
2019-02-10T09:11:58.740Z,98365.00
2019-02-10T09:14:31.756Z,98355.00
2019-02-10T09:17:04.638Z,98338.00
2019-02-10T09:19:37.478Z,98347.00
2019-02-10T09:22:11.472Z,98335.00
2019-02-10T09:24:44.330Z,98344.00
2019-02-10T09:27:17.158Z,98340.00
2019-02-10T09:29:50.010Z,98323.00
2019-02-10T09:32:23.064Z,98317.00
2019-02-10T09:34:55.926Z,98316.00
2019-02-10T09:37:28.835Z,98307.00
2019-02-10T09:40:01.673Z,98315.00
2019-02-10T09:42:34.500Z,98307.00
2019-02-10T09:45:10.654Z,98285.00
2019-02-10T09:47:43.517Z,98286.00
2019-02-10T09:50:18.937Z,98281.00
2019-02-10T09:52:52.798Z,98293.00
2019-02-10T09:55:25.648Z,98290.00
2019-02-10T09:57:58.434Z,98289.00
2019-02-10T10:00:31.270Z,98269.00
2019-02-10T10:03:04.116Z,98269.00
2019-02-10T10:05:36.940Z,98258.00
2019-02-10T10:08:09.786Z,98265.00
2019-02-10T10:10:42.672Z,98267.00
2019-02-10T10:13:15.823Z,98255.00
2019-02-10T10:15:48.701Z,98250.00
2019-02-10T10:18:21.560Z,98251.00
2019-02-10T10:20:54.390Z,98245.00
2019-02-10T10:23:27.280Z,98221.00
2019-02-10T10:26:00.164Z,98238.00
2019-02-10T10:28:33.039Z,98230.00
2019-02-10T10:31:05.884Z,98232.00
2019-02-10T10:33:38.871Z,98219.00
2019-02-10T10:36:11.750Z,98233.00
2019-02-10T10:38:44.636Z,98222.00
2019-02-10T10:41:17.425Z,98223.00
2019-02-10T10:43:50.306Z,98223.00
2019-02-10T10:46:23.189Z,98212.00
2019-02-10T10:48:56.069Z,98202.00
2019-02-10T10:51:29.086Z,98193.00
2019-02-10T10:54:01.985Z,98191.00
2019-02-10T10:56:34.828Z,98186.00
2019-02-10T10:59:07.699Z,98181.00
2019-02-10T11:01:40.574Z,98183.00
2019-02-10T11:04:13.453Z,98166.00
2019-02-10T11:06:46.300Z,98157.00
2019-02-10T11:09:19.157Z,98156.00
2019-02-10T11:11:52.079Z,98149.00
2019-02-10T11:14:24.875Z,98143.00
2019-02-10T11:16:57.681Z,98140.00
2019-02-10T11:19:30.590Z,98125.00
2019-02-10T11:22:03.541Z,98124.00
2019-02-10T11:24:36.416Z,98105.00
2019-02-10T11:27:09.290Z,98110.00
2019-02-10T11:29:42.176Z,98100.00
2019-02-10T11:32:15.157Z,98097.00
2019-02-10T11:34:48.083Z,98095.00
2019-02-10T11:37:26.731Z,98094.00
2019-02-10T11:39:55.726Z,98101.00
2019-02-10T11:42:28.593Z,98094.00
2019-02-10T11:45:01.566Z,98086.00
2019-02-10T11:47:34.436Z,98084.00
2019-02-10T11:50:08.141Z,98074.00
2019-02-10T11:52:41.131Z,98068.00
2019-02-10T11:55:14.100Z,98080.00
2019-02-10T11:57:46.981Z,98081.00
2019-02-10T12:00:19.845Z,98065.00
2019-02-10T12:02:52.664Z,98067.00
2019-02-10T12:05:25.585Z,98055.00
2019-02-10T12:07:58.423Z,98056.00
2019-02-10T12:10:31.350Z,98042.00
2019-02-10T12:13:04.380Z,98056.00
2019-02-10T12:15:37.250Z,98029.00
2019-02-10T12:18:10.131Z,98044.00
2019-02-10T12:20:42.999Z,98042.00
2019-02-10T12:23:15.890Z,98040.00
2019-02-10T12:25:48.717Z,98025.00
2019-02-10T12:28:21.550Z,98029.00
2019-02-10T12:30:54.478Z,98023.00
2019-02-10T12:33:27.515Z,98010.00
2019-02-10T12:36:00.427Z,98024.00
2019-02-10T12:38:33.277Z,98012.00
2019-02-10T12:41:06.236Z,97994.00
2019-02-10T12:43:39.122Z,98005.00
2019-02-10T12:46:11.957Z,98008.00
2019-02-10T12:48:45.049Z,98015.00
2019-02-10T12:51:17.938Z,98015.00
2019-02-10T12:53:50.832Z,98011.00
2019-02-10T12:56:23.839Z,98013.00
2019-02-10T12:58:56.729Z,98012.00
2019-02-10T13:01:30.586Z,98015.00
2019-02-10T13:04:03.562Z,98013.00
2019-02-10T13:06:36.530Z,98006.00
2019-02-10T13:09:12.472Z,98013.00
2019-02-10T13:11:45.359Z,98011.00
2019-02-10T13:14:18.244Z,98017.00
2019-02-10T13:16:51.100Z,98013.00
2019-02-10T13:19:24.029Z,98013.00
2019-02-10T13:21:57.011Z,98011.00
2019-02-10T13:24:29.909Z,98009.00
2019-02-10T13:27:02.770Z,98010.00
2019-02-10T13:29:35.690Z,98001.00
2019-02-10T13:32:08.544Z,98011.00
2019-02-10T13:34:41.534Z,98015.00
2019-02-10T13:37:14.438Z,98013.00
2019-02-10T13:39:47.417Z,98005.00
2019-02-10T13:42:20.419Z,98008.00
2019-02-10T13:44:53.452Z,97994.00
2019-02-10T13:47:26.361Z,97994.00
2019-02-10T13:49:59.310Z,98003.00
2019-02-10T13:52:32.171Z,98006.00
2019-02-10T13:55:05.663Z,98002.00
2019-02-10T13:57:38.522Z,98002.00
2019-02-10T14:00:14.894Z,98010.00
2019-02-10T14:02:49.519Z,98006.00
2019-02-10T14:05:22.537Z,98017.00
2019-02-10T14:07:55.364Z,98014.00
2019-02-10T14:10:28.357Z,98022.00
2019-02-10T14:13:01.227Z,98031.00
2019-02-10T14:15:34.227Z,98022.00
2019-02-10T14:18:07.123Z,98029.00
2019-02-10T14:20:39.990Z,98049.00
2019-02-10T14:23:12.917Z,98021.00
2019-02-10T14:25:45.796Z,98030.00
2019-02-10T14:28:18.660Z,98040.00
2019-02-10T14:30:51.778Z,98023.00
2019-02-10T14:33:24.637Z,98034.00
2019-02-10T14:35:57.690Z,98038.00
2019-02-10T14:38:36.350Z,98036.00
2019-02-10T14:41:05.322Z,98039.00
2019-02-10T14:43:38.203Z,98043.00
2019-02-10T14:46:11.115Z,98045.00
2019-02-10T14:48:43.950Z,98042.00
2019-02-10T14:51:16.868Z,98036.00
2019-02-10T14:53:49.696Z,98025.00
2019-02-10T14:56:23.754Z,98033.00
2019-02-10T14:58:56.691Z,98014.00
2019-02-10T15:01:29.641Z,98035.00
2019-02-10T15:04:02.568Z,98036.00
2019-02-10T15:06:35.532Z,98032.00
2019-02-10T15:09:09.688Z,98033.00
2019-02-10T15:11:42.575Z,98026.00
2019-02-10T15:14:15.462Z,98031.00
2019-02-10T15:16:48.338Z,98037.00
2019-02-10T15:19:21.708Z,98032.00
2019-02-10T15:21:54.646Z,98050.00
2019-02-10T15:24:27.509Z,98054.00
2019-02-10T15:27:00.459Z,98038.00
2019-02-10T15:29:33.264Z,98041.00
2019-02-10T15:32:06.165Z,98038.00
2019-02-10T15:34:39.066Z,98034.00
2019-02-10T15:37:12.226Z,98029.00
2019-02-10T15:39:45.110Z,98027.00
2019-02-10T15:42:18.046Z,98040.00
2019-02-10T15:44:50.974Z,98038.00
2019-02-10T15:47:23.846Z,98041.00
2019-02-10T15:49:56.822Z,98054.00
2019-02-10T15:52:29.779Z,98067.00
2019-02-10T15:55:02.745Z,98066.00
2019-02-10T15:57:35.712Z,98062.00
2019-02-10T16:00:14.955Z,98046.00
2019-02-10T16:02:47.820Z,98058.00
2019-02-10T16:05:20.712Z,98064.00
2019-02-10T16:07:53.694Z,98071.00
2019-02-10T16:10:26.747Z,98093.00
2019-02-10T16:12:59.588Z,98092.00
2019-02-10T16:15:32.478Z,98102.00
2019-02-10T16:18:05.363Z,98108.00
2019-02-10T16:20:38.211Z,98118.00
2019-02-10T16:23:11.074Z,98109.00
2019-02-10T16:25:44.018Z,98121.00
2019-02-10T16:28:16.969Z,98127.00
2019-02-10T16:30:49.810Z,98128.00
2019-02-10T16:33:22.713Z,98117.00
2019-02-10T16:35:55.641Z,98116.00
2019-02-10T16:38:28.593Z,98131.00
2019-02-10T16:41:06.459Z,98130.00
2019-02-10T16:43:36.496Z,98123.00
2019-02-10T16:46:09.508Z,98144.00
2019-02-10T16:48:42.396Z,98150.00
2019-02-10T16:51:15.325Z,98150.00
2019-02-10T16:53:48.339Z,98158.00
2019-02-10T16:56:21.437Z,98167.00
2019-02-10T16:58:54.565Z,98163.00
2019-02-10T17:01:27.727Z,98180.00
2019-02-10T17:04:00.595Z,98175.00
2019-02-10T17:06:33.545Z,98179.00
2019-02-10T17:09:07.057Z,98189.00
2019-02-10T17:11:40.272Z,98192.00
2019-02-10T17:14:13.189Z,98201.00
2019-02-10T17:16:46.136Z,98198.00
2019-02-10T17:19:19.029Z,98194.00
2019-02-10T17:21:51.976Z,98207.00
2019-02-10T17:24:24.807Z,98215.00
2019-02-10T17:26:57.740Z,98203.00
2019-02-10T17:29:30.705Z,98208.00
2019-02-10T17:32:03.561Z,98212.00
2019-02-10T17:34:36.452Z,98224.00
2019-02-10T17:37:09.441Z,98236.00
2019-02-10T17:39:42.322Z,98249.00
2019-02-10T17:42:15.318Z,98251.00
2019-02-10T17:44:48.286Z,98243.00
2019-02-10T17:47:21.126Z,98254.00
2019-02-10T17:49:53.964Z,98251.00
2019-02-10T17:52:31.858Z,98246.00
2019-02-10T17:55:01.654Z,98262.00
2019-02-10T17:57:34.560Z,98289.00
2019-02-10T18:00:09.357Z,98295.00
2019-02-10T18:02:42.223Z,98302.00
2019-02-10T18:05:15.086Z,98293.00
2019-02-10T18:07:47.980Z,98302.00
2019-02-10T18:10:20.843Z,98304.00
2019-02-10T18:12:53.719Z,98321.00
2019-02-10T18:15:49.063Z,98319.00
2019-02-10T18:18:41.586Z,98316.00
2019-02-10T18:21:31.949Z,98337.00
2019-02-10T18:24:23.870Z,98338.00
2019-02-10T18:27:19.459Z,98330.00
2019-02-10T18:30:09.882Z,98327.00
2019-02-10T18:32:54.349Z,98325.00
2019-02-10T18:35:53.911Z,98336.00
2019-02-10T18:38:34.864Z,98340.00
2019-02-10T18:41:24.428Z,98336.00
2019-02-10T18:44:15.576Z,98338.00
2019-02-10T18:47:10.579Z,98352.00
2019-02-10T18:50:01.916Z,98358.00
2019-02-10T18:52:55.620Z,98364.00
2019-02-10T18:55:57.206Z,98373.00
2019-02-10T18:58:55.862Z,98380.00
2019-02-10T19:01:38.484Z,98385.00
2019-02-10T19:04:17.515Z,98379.00
2019-02-10T19:07:18.327Z,98391.00
2019-02-10T19:10:09.731Z,98396.00
2019-02-10T19:13:02.258Z,98395.00
2019-02-10T19:15:47.160Z,98403.00
2019-02-10T19:18:32.055Z,98407.00
2019-02-10T19:21:30.473Z,98421.00
2019-02-10T19:24:26.018Z,98426.00
2019-02-10T19:27:28.708Z,98421.00
2019-02-10T19:30:10.742Z,98436.00
2019-02-10T19:33:03.229Z,98436.00
2019-02-10T19:35:46.288Z,98436.00
2019-02-10T19:38:37.664Z,98444.00
2019-02-10T19:41:23.858Z,98446.00
2019-02-10T19:44:15.501Z,98448.00
2019-02-10T19:47:00.388Z,98453.00
2019-02-10T19:49:43.980Z,98447.00
2019-02-10T19:52:33.697Z,98461.00
2019-02-10T19:55:26.269Z,98466.00
2019-02-10T19:58:17.926Z,98471.00
2019-02-10T20:01:16.411Z,98475.00
2019-02-10T20:04:21.670Z,98478.00
2019-02-10T20:07:07.952Z,98488.00
2019-02-10T20:09:48.194Z,98498.00
2019-02-10T20:12:35.502Z,98501.00
2019-02-10T20:15:17.398Z,98504.00
2019-02-10T20:18:13.072Z,98513.00
2019-02-10T20:21:07.608Z,98509.00
2019-02-10T20:23:58.986Z,98526.00
2019-02-10T20:27:01.466Z,98517.00
2019-02-10T20:30:09.105Z,98535.00
2019-02-10T20:32:53.191Z,98530.00
2019-02-10T20:35:52.851Z,98531.00
2019-02-10T20:38:50.952Z,98535.00
2019-02-10T20:41:46.269Z,98524.00
2019-02-10T20:44:40.545Z,98523.00
2019-02-10T20:47:33.154Z,98530.00
2019-02-10T20:50:39.297Z,98519.00
2019-02-10T20:53:31.024Z,98522.00
2019-02-10T20:56:12.344Z,98542.00
2019-02-10T20:59:01.738Z,98538.00
2019-02-10T21:01:50.711Z,98529.00
2019-02-10T21:04:49.566Z,98534.00
2019-02-10T21:08:00.183Z,98540.00
2019-02-10T21:10:55.658Z,98559.00
2019-02-10T21:13:50.968Z,98564.00
2019-02-10T21:16:43.293Z,98568.00
2019-02-10T21:19:35.883Z,98567.00
2019-02-10T21:22:18.196Z,98577.00
2019-02-10T21:25:10.658Z,98580.00
2019-02-10T21:27:54.070Z,98584.00
2019-02-10T21:30:45.398Z,98588.00
2019-02-10T21:33:47.272Z,98592.00
2019-02-10T21:36:26.658Z,98595.00
2019-02-10T21:39:21.099Z,98594.00
2019-02-10T21:42:19.124Z,98600.00
2019-02-10T21:45:10.300Z,98608.00
2019-02-10T21:47:56.671Z,98620.00
2019-02-10T21:50:29.600Z,98632.00
2019-02-10T21:53:02.480Z,98627.00
2019-02-10T21:55:35.355Z,98641.00
2019-02-10T21:58:08.262Z,98644.00
2019-02-10T22:00:41.193Z,98649.00
2019-02-10T22:03:14.061Z,98654.00
2019-02-10T22:05:46.913Z,98668.00
2019-02-10T22:08:19.770Z,98653.00
2019-02-10T22:10:52.612Z,98663.00
2019-02-10T22:13:25.632Z,98676.00
2019-02-10T22:15:58.489Z,98656.00
2019-02-10T22:18:31.395Z,98689.00
2019-02-10T22:21:04.220Z,98699.00
2019-02-10T22:23:38.022Z,98689.00
2019-02-10T22:26:10.880Z,98695.00
2019-02-10T22:28:43.788Z,98702.00
2019-02-10T22:31:19.070Z,98711.00
2019-02-10T22:33:52.097Z,98720.00
2019-02-10T22:36:24.912Z,98724.00
2019-02-10T22:38:57.859Z,98715.00
2019-02-10T22:41:30.706Z,98732.00
2019-02-10T22:44:03.668Z,98742.00
2019-02-10T22:46:36.499Z,98743.00
2019-02-10T22:49:09.341Z,98747.00
2019-02-10T22:51:42.376Z,98739.00
2019-02-10T22:54:15.219Z,98758.00
2019-02-10T22:56:48.046Z,98766.00
2019-02-10T22:59:20.919Z,98765.00
2019-02-10T23:01:53.811Z,98788.00
2019-02-10T23:04:26.686Z,98763.00
2019-02-10T23:06:59.532Z,98782.00
2019-02-10T23:09:32.367Z,98770.00
2019-02-10T23:12:05.167Z,98793.00
2019-02-10T23:14:38.024Z,98804.00
2019-02-10T23:17:10.829Z,98811.00
2019-02-10T23:19:43.646Z,98801.00
2019-02-10T23:22:16.500Z,98797.00
2019-02-10T23:24:49.331Z,98839.00
2019-02-10T23:27:22.259Z,98842.00
2019-02-10T23:29:55.101Z,98845.00
2019-02-10T23:32:27.898Z,98853.00
2019-02-10T23:35:00.733Z,98847.00
2019-02-10T23:37:33.574Z,98866.00
2019-02-10T23:40:06.555Z,98860.00
2019-02-10T23:42:39.409Z,98890.00
2019-02-10T23:45:12.539Z,98898.00
2019-02-10T23:47:45.338Z,98890.00
2019-02-10T23:50:18.158Z,98907.00
2019-02-10T23:52:51.050Z,98901.00
2019-02-10T23:55:24.064Z,98900.00
2019-02-10T23:57:56.863Z,98936.00
